Time;durP1;ratioP1;P1;durP2;ratioP2;P2;SDS_P1;SDS_P2;PMS_P1;PMS_P2;Temp;Humidity;BMP_temperature;BMP_pressure;BME280_temperature;BME280_humidity;BME280_pressure;Samples;Min_cycle;Max_cycle;Signal;HPM_P1;HPM_P2
2022/01/11 00:00:21;;;;;;;26.27;9.32;;;;;;;;;;4935564;29;20114;-70
2022/01/11 00:02:48;;;;;;;21.38;8.40;;;;;;;;;;4936727;29;20036;-73
2022/01/11 00:05:22;;;;;;;26.75;9.05;;;;;;;;;;4936684;29;20123;-69
2022/01/11 00:07:49;;;;;;;29.20;9.93;;;;;;;;;;4935407;29;20111;-69
2022/01/11 00:10:25;;;;;;;29.30;10.45;;;;;;;;;;4935362;29;20382;-70
2022/01/11 00:12:51;;;;;;;29.60;10.23;;;;;;;;;;4934651;29;20035;-73
2022/01/11 00:15:17;;;;;;;25.73;9.65;;;;;;;;;;4935293;29;20506;-70
2022/01/11 00:17:44;;;;;;;29.77;10.63;;;;;;;;;;4936536;29;20397;-69
2022/01/11 00:20:13;;;;;;;26.65;9.55;;;;;;;;;;4934934;29;20074;-73
2022/01/11 00:24:26;;;;;;;28.23;10.27;;;;;;;;;;4935164;29;20404;-74
2022/01/11 00:25:26;;;;;;;25.90;9.80;;;;;;;;;;4936287;29;20389;-72
2022/01/11 00:27:53;;;;;;;29.17;10.60;;;;;;;;;;4935064;29;20047;-69
2022/01/11 00:30:19;;;;;;;31.23;11.35;;;;;;;;;;4934973;29;20020;-73
2022/01/11 00:32:51;;;;;;;27.23;10.43;;;;;;;;;;4934803;29;20038;-73
2022/01/11 00:35:21;;;;;;;31.17;11.95;;;;;;;;;;4934747;29;20019;-70
2022/01/11 00:37:48;;;;;;;35.17;12.60;;;;;;;;;;4934824;29;20039;-74
2022/01/11 00:40:14;;;;;;;28.75;11.75;;;;;;;;;;4950502;29;20111;-71
2022/01/11 00:42:40;;;;;;;28.60;11.40;;;;;;;;;;4936105;29;20046;-69
2022/01/11 00:45:09;;;;;;;32.53;11.40;;;;;;;;;;4934757;29;20027;-69
2022/01/11 00:47:36;;;;;;;33.72;11.77;;;;;;;;;;4934668;29;20023;-69
2022/01/11 00:50:03;;;;;;;34.15;12.25;;;;;;;;;;4934680;29;20051;-71
2022/01/11 00:52:29;;;;;;;31.60;12.45;;;;;;;;;;4934645;29;20074;-73
2022/01/11 00:54:55;;;;;;;34.83;12.07;;;;;;;;;;4934545;29;20485;-70
2022/01/11 00:57:22;;;;;;;30.30;11.10;;;;;;;;;;4934540;29;20031;-73
2022/01/11 00:59:48;;;;;;;35.20;11.65;;;;;;;;;;4934510;29;20142;-73
2022/01/11 01:02:14;;;;;;;32.83;11.98;;;;;;;;;;4934331;29;20066;-72
2022/01/11 01:04:40;;;;;;;29.38;11.30;;;;;;;;;;4934471;29;20381;-70
2022/01/11 01:07:07;;;;;;;30.15;11.63;;;;;;;;;;4934351;29;20032;-69
2022/01/11 01:10:01;;;;;;;33.80;12.35;;;;;;;;;;4934378;29;20031;-70
2022/01/11 01:12:22;;;;;;;32.92;11.52;;;;;;;;;;4935361;29;20039;-70
2022/01/11 01:14:48;;;;;;;35.30;12.45;;;;;;;;;;4934181;29;20032;-69
2022/01/11 01:17:14;;;;;;;34.67;12.38;;;;;;;;;;4935423;29;20030;-70
2022/01/11 01:19:40;;;;;;;35.15;12.60;;;;;;;;;;4933898;29;20126;-75
2022/01/11 01:22:06;;;;;;;27.85;11.05;;;;;;;;;;4918268;29;20076;-74
2022/01/11 01:24:32;;;;;;;34.78;11.38;;;;;;;;;;4918200;29;20473;-70
2022/01/11 01:26:59;;;;;;;32.33;11.35;;;;;;;;;;4918197;29;20023;-70
2022/01/11 01:29:25;;;;;;;30.85;10.85;;;;;;;;;;4918239;29;20112;-74
2022/01/11 01:31:52;;;;;;;26.80;10.38;;;;;;;;;;4918254;29;20031;-76
2022/01/11 01:34:18;;;;;;;32.33;11.93;;;;;;;;;;4935142;29;20116;-73
2022/01/11 01:36:44;;;;;;;33.65;11.90;;;;;;;;;;4918766;29;20024;-69
2022/01/11 01:39:10;;;;;;;34.58;11.48;;;;;;;;;;4918733;29;20384;-73
2022/01/11 01:41:41;;;;;;;35.58;11.88;;;;;;;;;;4918145;29;20036;-71
2022/01/11 01:44:08;;;;;;;28.25;10.40;;;;;;;;;;4918540;29;20378;-74
2022/01/11 01:46:34;;;;;;;29.60;10.80;;;;;;;;;;4918922;29;20078;-70
2022/01/11 01:49:01;;;;;;;33.55;11.07;;;;;;;;;;4919018;29;20457;-76
2022/01/11 01:51:28;;;;;;;28.30;10.65;;;;;;;;;;4918890;29;20027;-71
2022/01/11 01:53:54;;;;;;;34.00;11.45;;;;;;;;;;4936073;29;20031;-70
2022/01/11 01:56:22;;;;;;;30.70;10.77;;;;;;;;;;4918973;29;20416;-71
2022/01/11 01:58:48;;;;;;;29.80;11.23;;;;;;;;;;4918846;29;20477;-75
2022/01/11 02:01:14;;;;;;;26.00;9.80;;;;;;;;;;4936097;29;20032;-71
2022/01/11 02:03:41;;;;;;;30.88;10.35;;;;;;;;;;4935894;29;20537;-74
2022/01/11 02:06:11;;;;;;;33.70;10.75;;;;;;;;;;4935180;29;20020;-70
2022/01/11 02:08:37;;;;;;;33.30;10.40;;;;;;;;;;4918059;29;20150;-70
2022/01/11 02:11:04;;;;;;;30.98;10.93;;;;;;;;;;4917915;29;20034;-70
2022/01/11 02:13:30;;;;;;;30.60;10.82;;;;;;;;;;4935030;29;20035;-70
2022/01/11 02:15:57;;;;;;;35.92;11.77;;;;;;;;;;4917968;29;20477;-76
2022/01/11 02:18:26;;;;;;;34.17;11.80;;;;;;;;;;4934911;29;20485;-75
2022/01/11 02:20:55;;;;;;;30.27;11.57;;;;;;;;;;4925398;29;20051;-74
2022/01/11 02:23:21;;;;;;;36.00;11.35;;;;;;;;;;4944747;29;20047;-72
2022/01/11 02:25:48;;;;;;;30.88;11.80;;;;;;;;;;4936024;29;20058;-75
2022/01/11 02:28:15;;;;;;;33.80;12.23;;;;;;;;;;4933586;29;20036;-76
2022/01/11 02:30:41;;;;;;;36.67;12.52;;;;;;;;;;4933667;29;20039;-75
2022/01/11 02:33:17;;;;;;;29.15;10.77;;;;;;;;;;4933616;29;20046;-74
2022/01/11 02:35:50;;;;;;;37.08;13.23;;;;;;;;;;4934162;29;20027;-75
2022/01/11 02:38:16;;;;;;;37.00;12.25;;;;;;;;;;4937096;29;20027;-70
2022/01/11 02:40:43;;;;;;;36.25;13.40;;;;;;;;;;4937010;29;20046;-73
2022/01/11 02:43:09;;;;;;;39.47;13.52;;;;;;;;;;4938173;29;20039;-69
2022/01/11 02:45:35;;;;;;;39.30;13.48;;;;;;;;;;4936883;29;20049;-70
2022/01/11 02:48:01;;;;;;;43.83;14.10;;;;;;;;;;4936849;29;20083;-71
2022/01/11 02:50:27;;;;;;;39.95;14.60;;;;;;;;;;4938053;29;20537;-71
2022/01/11 02:52:53;;;;;;;34.58;12.63;;;;;;;;;;4936842;29;20031;-76
2022/01/11 02:55:20;;;;;;;41.58;14.02;;;;;;;;;;4938038;29;20048;-70
2022/01/11 02:57:46;;;;;;;41.15;13.93;;;;;;;;;;4937188;29;20027;-74
2022/01/11 03:00:13;;;;;;;41.63;14.38;;;;;;;;;;4938675;29;20026;-75
2022/01/11 03:02:40;;;;;;;40.85;15.05;;;;;;;;;;4937401;29;20047;-76
2022/01/11 03:05:06;;;;;;;44.58;14.40;;;;;;;;;;4938634;29;20032;-71
2022/01/11 03:07:33;;;;;;;51.60;13.55;;;;;;;;;;4938523;29;20032;-70
2022/01/11 03:12:26;;;;;;;39.85;15.07;;;;;;;;;;4938426;29;20034;-71
2022/01/11 03:14:52;;;;;;;47.47;13.25;;;;;;;;;;4937147;29;20500;-76
2022/01/11 03:17:19;;;;;;;38.00;13.80;;;;;;;;;;4938352;29;20036;-71
2022/01/11 03:19:46;;;;;;;39.28;14.13;;;;;;;;;;4938242;29;20108;-75
2022/01/11 03:22:12;;;;;;;44.13;14.82;;;;;;;;;;4938356;29;20067;-72
2022/01/11 03:24:38;;;;;;;39.75;13.98;;;;;;;;;;4938249;29;20079;-73
2022/01/11 03:27:06;;;;;;;39.65;14.55;;;;;;;;;;4938508;29;20032;-71
2022/01/11 03:29:33;;;;;;;41.35;14.20;;;;;;;;;;4937433;29;20473;-76
2022/01/11 03:31:59;;;;;;;39.75;14.00;;;;;;;;;;4920375;29;20118;-73
2022/01/11 03:34:25;;;;;;;40.03;13.68;;;;;;;;;;4920208;29;20028;-71
2022/01/11 03:36:52;;;;;;;40.85;14.60;;;;;;;;;;4937315;29;20043;-75
2022/01/11 03:39:18;;;;;;;45.58;15.25;;;;;;;;;;4937430;29;20028;-70
2022/01/11 03:41:44;;;;;;;45.20;16.05;;;;;;;;;;4919878;29;20480;-74
2022/01/11 03:44:11;;;;;;;43.83;15.50;;;;;;;;;;4920113;29;20035;-75
2022/01/11 03:46:37;;;;;;;44.28;15.77;;;;;;;;;;4936799;29;20112;-75
2022/01/11 03:49:03;;;;;;;44.83;15.00;;;;;;;;;;4919337;29;20584;-75
2022/01/11 03:51:32;;;;;;;49.15;16.15;;;;;;;;;;4937050;29;20031;-74
2022/01/11 03:54:10;;;;;;;49.58;16.23;;;;;;;;;;4936848;29;20111;-74
2022/01/11 03:56:37;;;;;;;48.80;16.52;;;;;;;;;;4920014;29;20028;-70
2022/01/11 03:59:08;;;;;;;46.50;15.43;;;;;;;;;;4919773;29;20028;-70
2022/01/11 04:01:34;;;;;;;40.22;13.68;;;;;;;;;;4919966;29;20493;-71
2022/01/11 04:04:01;;;;;;;44.28;15.95;;;;;;;;;;4920249;29;20031;-75
2022/01/11 04:06:27;;;;;;;42.20;14.65;;;;;;;;;;4950288;29;20032;-75
2022/01/11 04:08:53;;;;;;;36.55;13.15;;;;;;;;;;4936738;29;20110;-74
2022/01/11 04:11:20;;;;;;;38.70;14.68;;;;;;;;;;4936642;29;20075;-69
2022/01/11 04:13:47;;;;;;;48.60;14.57;;;;;;;;;;4936691;29;20032;-69
2022/01/11 04:16:13;;;;;;;41.05;14.43;;;;;;;;;;4919376;29;20027;-71
2022/01/11 04:18:39;;;;;;;37.58;13.73;;;;;;;;;;4919389;29;20126;-70
2022/01/11 04:21:06;;;;;;;41.50;12.63;;;;;;;;;;4928597;29;20055;-70
2022/01/11 04:23:34;;;;;;;45.30;14.45;;;;;;;;;;4936536;29;20064;-70
2022/01/11 04:26:01;;;;;;;39.53;13.48;;;;;;;;;;4935168;29;20037;-75
2022/01/11 04:28:27;;;;;;;39.83;13.82;;;;;;;;;;4936365;29;20020;-70
2022/01/11 04:30:58;;;;;;;42.75;14.20;;;;;;;;;;4934988;29;20031;-71
2022/01/11 04:33:24;;;;;;;35.78;13.40;;;;;;;;;;4934976;29;20397;-71
2022/01/11 04:35:51;;;;;;;41.63;14.35;;;;;;;;;;4934931;29;20024;-71
2022/01/11 04:38:18;;;;;;;34.10;11.45;;;;;;;;;;4934976;29;20032;-70
2022/01/11 04:40:44;;;;;;;41.35;13.75;;;;;;;;;;4934817;29;20521;-74
2022/01/11 04:43:10;;;;;;;42.83;14.73;;;;;;;;;;4935999;29;20032;-69
2022/01/11 04:45:36;;;;;;;40.20;14.63;;;;;;;;;;4936069;29;20381;-71
2022/01/11 04:48:03;;;;;;;39.65;12.43;;;;;;;;;;4934735;29;20102;-76
2022/01/11 04:50:29;;;;;;;52.30;16.75;;;;;;;;;;4935961;29;20032;-69
2022/01/11 04:52:57;;;;;;;40.00;12.77;;;;;;;;;;4935815;29;20043;-70
2022/01/11 04:55:23;;;;;;;39.72;13.50;;;;;;;;;;4934634;29;20467;-72
2022/01/11 04:57:50;;;;;;;43.85;15.50;;;;;;;;;;4934592;29;20032;-74
2022/01/11 05:00:18;;;;;;;41.83;13.98;;;;;;;;;;4934307;29;20083;-76
2022/01/11 05:02:44;;;;;;;45.28;15.10;;;;;;;;;;4934421;29;20131;-70
2022/01/11 05:05:10;;;;;;;47.65;15.40;;;;;;;;;;4935774;29;20063;-76
2022/01/11 05:07:37;;;;;;;42.40;15.10;;;;;;;;;;4935633;29;20521;-74
2022/01/11 05:10:04;;;;;;;41.88;14.48;;;;;;;;;;4935572;29;20027;-75
2022/01/11 05:12:30;;;;;;;39.00;14.07;;;;;;;;;;4935497;29;20023;-74
2022/01/11 05:14:56;;;;;;;37.90;15.00;;;;;;;;;;4935516;29;20024;-71
2022/01/11 05:17:23;;;;;;;37.13;14.32;;;;;;;;;;4934313;29;20030;-70
2022/01/11 05:19:49;;;;;;;42.10;14.48;;;;;;;;;;4934105;29;20163;-71
2022/01/11 05:22:16;;;;;;;34.17;12.60;;;;;;;;;;4918411;29;20074;-70
2022/01/11 05:24:42;;;;;;;52.72;15.07;;;;;;;;;;4935397;29;20032;-71
2022/01/11 05:27:09;;;;;;;39.38;13.48;;;;;;;;;;4935458;29;20079;-70
2022/01/11 05:29:35;;;;;;;42.42;14.15;;;;;;;;;;4918235;29;20067;-70
2022/01/11 05:32:03;;;;;;;41.92;13.93;;;;;;;;;;4918228;29;20031;-69
2022/01/11 05:34:29;;;;;;;45.30;15.00;;;;;;;;;;4935307;29;20028;-70
2022/01/11 05:36:55;;;;;;;43.90;14.45;;;;;;;;;;4935232;29;20028;-74
2022/01/11 05:39:21;;;;;;;39.97;12.82;;;;;;;;;;4918135;29;20102;-71
2022/01/11 05:41:48;;;;;;;37.95;13.60;;;;;;;;;;4917254;29;20046;-69
2022/01/11 05:44:14;;;;;;;35.63;14.35;;;;;;;;;;4917850;29;20067;-69
2022/01/11 05:46:40;;;;;;;41.28;15.00;;;;;;;;;;4937510;29;20095;-69
2022/01/11 05:49:06;;;;;;;41.33;14.02;;;;;;;;;;4929420;29;20024;-74
2022/01/11 05:51:32;;;;;;;36.45;14.40;;;;;;;;;;4918717;29;20459;-69
2022/01/11 05:53:58;;;;;;;40.53;14.75;;;;;;;;;;4918920;29;20035;-69
2022/01/11 05:56:25;;;;;;;44.08;16.20;;;;;;;;;;4936031;29;20028;-69
2022/01/11 05:58:52;;;;;;;35.63;14.13;;;;;;;;;;4919668;29;20040;-74
2022/01/11 06:01:18;;;;;;;38.92;13.43;;;;;;;;;;4918850;29;20028;-68
2022/01/11 06:03:44;;;;;;;39.95;14.55;;;;;;;;;;4918846;29;20043;-73
2022/01/11 06:06:11;;;;;;;42.25;14.95;;;;;;;;;;4915707;29;20027;-72
2022/01/11 06:08:37;;;;;;;40.92;15.13;;;;;;;;;;4933249;29;20031;-73
2022/01/11 06:11:03;;;;;;;44.33;16.98;;;;;;;;;;4919692;29;20083;-72
2022/01/11 06:13:29;;;;;;;46.75;15.80;;;;;;;;;;4921949;29;20425;-74
2022/01/11 06:15:56;;;;;;;38.88;15.93;;;;;;;;;;4939123;29;20040;-74
2022/01/11 06:18:22;;;;;;;39.88;14.75;;;;;;;;;;4922127;29;20071;-73
2022/01/11 06:20:48;;;;;;;41.47;16.15;;;;;;;;;;4929121;29;20055;-75
2022/01/11 06:23:14;;;;;;;42.50;13.70;;;;;;;;;;4938018;29;20051;-73
2022/01/11 06:25:40;;;;;;;40.05;15.07;;;;;;;;;;4939147;29;20059;-71
2022/01/11 06:28:06;;;;;;;46.47;15.38;;;;;;;;;;4938044;29;20027;-73
2022/01/11 06:30:32;;;;;;;50.63;16.65;;;;;;;;;;4937783;29;20038;-74
2022/01/11 06:32:58;;;;;;;38.72;13.73;;;;;;;;;;4937612;29;20028;-74
2022/01/11 06:35:25;;;;;;;37.70;13.77;;;;;;;;;;4939236;29;20046;-72
2022/01/11 06:37:52;;;;;;;39.00;13.48;;;;;;;;;;4938878;29;20106;-74
2022/01/11 06:40:19;;;;;;;45.70;14.68;;;;;;;;;;4937802;29;20429;-74
2022/01/11 06:42:46;;;;;;;40.88;15.57;;;;;;;;;;4937382;29;20050;-72
2022/01/11 06:45:14;;;;;;;47.25;15.27;;;;;;;;;;4937562;29;20023;-71
2022/01/11 06:47:41;;;;;;;40.10;15.30;;;;;;;;;;4937636;29;20039;-75
2022/01/11 06:50:08;;;;;;;31.08;12.05;;;;;;;;;;4939142;29;20036;-74
2022/01/11 06:52:34;;;;;;;40.17;15.00;;;;;;;;;;4937486;29;20389;-74
2022/01/11 06:55:00;;;;;;;37.67;13.27;;;;;;;;;;4938851;29;20489;-73
2022/01/11 06:57:28;;;;;;;38.53;15.23;;;;;;;;;;4937900;29;20030;-69
2022/01/11 06:59:54;;;;;;;34.95;13.73;;;;;;;;;;4937348;29;20561;-69
2022/01/11 07:02:20;;;;;;;35.38;13.07;;;;;;;;;;4925682;29;20064;-69
2022/01/11 07:04:46;;;;;;;37.05;12.23;;;;;;;;;;4918115;29;20142;-70
2022/01/11 07:07:12;;;;;;;34.33;13.00;;;;;;;;;;4918357;29;20064;-74
2022/01/11 07:09:39;;;;;;;34.58;12.80;;;;;;;;;;4919590;29;20111;-69
2022/01/11 07:12:05;;;;;;;37.78;13.13;;;;;;;;;;4918081;29;20031;-73
2022/01/11 07:14:31;;;;;;;35.88;13.70;;;;;;;;;;4917947;29;20035;-74
2022/01/11 07:16:57;;;;;;;33.20;12.40;;;;;;;;;;4918162;29;20072;-68
2022/01/11 07:19:24;;;;;;;35.72;12.95;;;;;;;;;;4917929;29;20043;-74
2022/01/11 07:21:50;;;;;;;31.67;11.05;;;;;;;;;;4917387;29;20052;-70
2022/01/11 07:24:17;;;;;;;32.15;11.93;;;;;;;;;;4917818;29;20485;-74
2022/01/11 07:26:43;;;;;;;30.73;11.45;;;;;;;;;;4917916;29;20031;-74
2022/01/11 07:29:10;;;;;;;29.08;10.82;;;;;;;;;;4919273;29;20043;-72
2022/01/11 07:31:38;;;;;;;34.03;11.93;;;;;;;;;;4919285;29;20028;-73
2022/01/11 07:34:05;;;;;;;32.40;11.20;;;;;;;;;;4917997;29;20032;-73
2022/01/11 07:36:31;;;;;;;28.30;10.93;;;;;;;;;;4923645;29;20031;-73
2022/01/11 07:38:57;;;;;;;32.60;11.95;;;;;;;;;;4928973;29;20541;-75
2022/01/11 07:41:23;;;;;;;29.75;12.40;;;;;;;;;;4918816;29;20020;-72
2022/01/11 07:43:49;;;;;;;26.05;10.52;;;;;;;;;;4918823;29;20032;-73
2022/01/11 07:46:15;;;;;;;24.77;10.43;;;;;;;;;;4917448;29;20486;-75
2022/01/11 07:48:41;;;;;;;28.35;10.80;;;;;;;;;;4917669;29;20051;-71
2022/01/11 07:51:08;;;;;;;27.42;10.63;;;;;;;;;;4918798;29;20032;-74
2022/01/11 07:53:34;;;;;;;28.08;11.93;;;;;;;;;;4918698;29;20029;-74
2022/01/11 07:56:00;;;;;;;30.08;12.55;;;;;;;;;;4917488;29;20032;-76
2022/01/11 07:58:26;;;;;;;27.10;11.43;;;;;;;;;;4917423;29;20071;-75
2022/01/11 08:00:52;;;;;;;27.90;12.82;;;;;;;;;;4918691;29;20028;-72
2022/01/11 08:03:20;;;;;;;27.13;12.27;;;;;;;;;;4917341;29;20139;-73
2022/01/11 08:05:46;;;;;;;25.90;12.95;;;;;;;;;;4918769;29;20108;-76
2022/01/11 08:08:13;;;;;;;28.30;13.15;;;;;;;;;;4918635;29;20470;-76
2022/01/11 08:10:39;;;;;;;29.63;12.68;;;;;;;;;;4917048;29;20024;-77
2022/01/11 08:13:08;;;;;;;27.27;13.00;;;;;;;;;;4916889;29;20036;-77
2022/01/11 08:15:34;;;;;;;24.40;12.75;;;;;;;;;;4917260;29;20024;-77
2022/01/11 08:18:01;;;;;;;22.55;11.48;;;;;;;;;;4917197;29;20489;-76
2022/01/11 08:20:27;;;;;;;23.52;12.32;;;;;;;;;;4900967;29;20052;-72
2022/01/11 08:22:54;;;;;;;22.27;11.63;;;;;;;;;;4916728;29;20446;-77
2022/01/11 08:25:20;;;;;;;25.70;11.15;;;;;;;;;;4917253;29;20109;-76
2022/01/11 08:27:47;;;;;;;27.48;10.75;;;;;;;;;;4918048;29;20032;-75
2022/01/11 08:30:13;;;;;;;56.53;24.55;;;;;;;;;;4916663;29;20031;-78
2022/01/11 08:32:39;;;;;;;23.85;11.70;;;;;;;;;;4936098;29;20452;-77
2022/01/11 08:35:06;;;;;;;21.02;10.65;;;;;;;;;;4935587;29;20064;-75
2022/01/11 08:37:32;;;;;;;13.10;5.88;;;;;;;;;;4936294;29;20031;-77
2022/01/11 08:39:58;;;;;;;11.18;5.57;;;;;;;;;;4936892;29;20036;-76
2022/01/11 08:42:27;;;;;;;20.20;7.80;;;;;;;;;;4935200;29;20123;-75
2022/01/11 08:44:53;;;;;;;21.10;7.97;;;;;;;;;;4935349;29;20024;-77
2022/01/11 08:47:20;;;;;;;14.82;6.32;;;;;;;;;;4935315;29;20051;-76
2022/01/11 08:49:46;;;;;;;24.05;13.70;;;;;;;;;;4935442;29;20034;-76
2022/01/11 08:52:12;;;;;;;13.93;5.88;;;;;;;;;;4935389;29;20038;-76
2022/01/11 08:54:39;;;;;;;15.40;6.30;;;;;;;;;;4935330;29;20031;-76
2022/01/11 08:57:06;;;;;;;15.57;6.03;;;;;;;;;;4937104;29;20038;-76
2022/01/11 08:59:32;;;;;;;14.00;6.40;;;;;;;;;;4935305;29;20023;-76
2022/01/11 09:02:00;;;;;;;12.18;6.07;;;;;;;;;;4936115;29;20485;-77
2022/01/11 09:04:27;;;;;;;11.63;5.47;;;;;;;;;;4935097;29;20079;-76
2022/01/11 09:06:58;;;;;;;17.27;6.75;;;;;;;;;;4935253;29;20019;-77
2022/01/11 09:09:31;;;;;;;14.48;5.72;;;;;;;;;;4935366;29;20055;-74
2022/01/11 09:11:57;;;;;;;;;;;;;;;;;;4937018;29;20028;-77
2022/01/11 09:14:24;;;;;;;12.25;5.57;;;;;;;;;;4936407;29;19910;-77
2022/01/11 09:16:50;;;;;;;19.17;6.45;;;;;;;;;;4935150;29;20482;-76
2022/01/11 09:19:18;;;;;;;14.75;6.10;;;;;;;;;;4936348;29;20381;-76
2022/01/11 09:21:45;;;;;;;13.27;5.70;;;;;;;;;;4934709;29;20048;-78
2022/01/11 09:24:12;;;;;;;17.20;6.50;;;;;;;;;;4934718;29;20031;-77
2022/01/11 09:26:39;;;;;;;14.60;6.50;;;;;;;;;;4937138;29;20032;-77
2022/01/11 09:29:05;;;;;;;16.98;7.07;;;;;;;;;;4935545;29;20036;-78
2022/01/11 09:31:31;;;;;;;18.75;7.80;;;;;;;;;;4958058;29;20048;-73
2022/01/11 09:33:57;;;;;;;14.98;6.05;;;;;;;;;;4935369;29;20171;-78
2022/01/11 09:36:24;;;;;;;17.23;6.90;;;;;;;;;;4936117;29;20031;-74
2022/01/11 09:38:50;;;;;;;13.52;6.75;;;;;;;;;;4935953;29;20413;-76
2022/01/11 09:41:16;;;;;;;13.80;5.82;;;;;;;;;;4936127;29;20032;-76
2022/01/11 09:43:43;;;;;;;20.13;7.80;;;;;;;;;;4935856;29;20039;-76
2022/01/11 09:46:09;;;;;;;16.27;7.75;;;;;;;;;;4939164;29;20099;-77
2022/01/11 09:48:35;;;;;;;15.88;7.05;;;;;;;;;;4939420;29;20484;-78
2022/01/11 09:51:02;;;;;;;17.05;6.80;;;;;;;;;;4940058;29;20020;-77
2022/01/11 09:53:28;;;;;;;16.75;7.88;;;;;;;;;;4938773;29;20028;-77
2022/01/11 09:55:55;;;;;;;13.45;6.32;;;;;;;;;;4938777;29;20031;-78
2022/01/11 09:58:21;;;;;;;14.45;6.57;;;;;;;;;;4939731;29;20393;-76
2022/01/11 10:00:47;;;;;;;14.60;7.00;;;;;;;;;;4938476;29;20024;-77
2022/01/11 10:03:15;;;;;;;16.67;6.45;;;;;;;;;;4919853;29;20552;-76
2022/01/11 10:05:41;;;;;;;15.38;6.82;;;;;;;;;;4919462;29;20036;-76
2022/01/11 10:08:25;;;;;;;16.25;7.57;;;;;;;;;;4919308;29;20130;-77
2022/01/11 10:10:54;;;;;;;15.30;7.25;;;;;;;;;;4918590;29;20032;-76
2022/01/11 10:13:32;;;;;;;13.45;7.00;;;;;;;;;;4918424;29;20497;-77
2022/01/11 10:15:58;;;;;;;13.40;7.07;;;;;;;;;;4920542;29;20043;-73
2022/01/11 10:18:35;;;;;;;15.27;7.47;;;;;;;;;;4938094;29;20028;-76
2022/01/11 10:21:01;;;;;;;16.13;7.50;;;;;;;;;;4934496;29;20393;-77
2022/01/11 10:23:34;;;;;;;18.33;7.60;;;;;;;;;;4938167;29;20051;-79
2022/01/11 10:26:00;;;;;;;17.40;7.88;;;;;;;;;;4937300;29;20058;-77
2022/01/11 10:28:34;;;;;;;16.83;8.80;;;;;;;;;;4939252;29;20032;-76
2022/01/11 10:31:00;;;;;;;16.13;7.55;;;;;;;;;;4937646;29;20477;-73
2022/01/11 10:33:26;;;;;;;21.52;7.80;;;;;;;;;;4937537;29;20481;-76
2022/01/11 10:35:52;;;;;;;13.57;7.30;;;;;;;;;;4939138;29;20054;-77
2022/01/11 10:38:26;;;;;;;15.60;7.65;;;;;;;;;;4938965;29;20036;-70
2022/01/11 10:40:52;;;;;;;17.58;7.32;;;;;;;;;;4939128;29;20087;-76
2022/01/11 10:43:20;;;;;;;18.63;8.00;;;;;;;;;;4937462;29;20112;-75
2022/01/11 10:45:47;;;;;;;14.95;7.53;;;;;;;;;;4937687;29;20028;-77
2022/01/11 10:48:22;;;;;;;18.58;6.90;;;;;;;;;;4937770;29;20028;-77
2022/01/11 10:50:49;;;;;;;18.52;7.63;;;;;;;;;;4937721;29;20433;-76
2022/01/11 10:53:18;;;;;;;14.93;7.22;;;;;;;;;;4938773;29;20039;-78
2022/01/11 10:55:47;;;;;;;14.20;7.13;;;;;;;;;;4937630;29;20119;-71
2022/01/11 10:58:14;;;;;;;14.63;7.32;;;;;;;;;;4936979;29;20024;-77
2022/01/11 11:00:47;;;;;;;18.25;7.90;;;;;;;;;;4937562;29;20035;-78
2022/01/11 11:03:18;;;;;;;15.95;7.35;;;;;;;;;;4918981;29;20044;-78
2022/01/11 11:05:54;;;;;;;16.88;7.00;;;;;;;;;;4918538;29;20025;-74
2022/01/11 11:08:23;;;;;;;20.00;7.70;;;;;;;;;;4919767;29;20032;-75
2022/01/11 11:10:55;;;;;;;15.98;8.02;;;;;;;;;;4918700;29;20041;-73
2022/01/11 11:13:32;;;;;;;18.33;7.72;;;;;;;;;;4918282;29;20032;-77
2022/01/11 11:15:59;;;;;;;16.40;7.40;;;;;;;;;;4919455;29;20121;-76
2022/01/11 11:18:25;;;;;;;16.70;7.88;;;;;;;;;;4917614;29;20483;-71
2022/01/11 11:20:51;;;;;;;15.07;6.90;;;;;;;;;;4917028;29;20106;-75
2022/01/11 11:23:18;;;;;;;12.93;6.60;;;;;;;;;;4945472;29;20035;-71
2022/01/11 11:25:44;;;;;;;17.83;7.45;;;;;;;;;;4943123;29;20035;-75
2022/01/11 11:28:10;;;;;;;15.57;7.75;;;;;;;;;;4919841;29;20030;-76
2022/01/11 11:30:37;;;;;;;15.32;7.25;;;;;;;;;;4935411;29;20031;-76
2022/01/11 11:33:03;;;;;;;14.30;7.60;;;;;;;;;;4935836;29;20533;-76
2022/01/11 11:35:29;;;;;;;15.20;7.88;;;;;;;;;;4935544;29;20023;-75
2022/01/11 11:37:58;;;;;;;14.00;7.22;;;;;;;;;;4932688;29;20044;-75
2022/01/11 11:40:25;;;;;;;15.20;6.68;;;;;;;;;;4927329;29;20381;-75
2022/01/11 11:42:58;;;;;;;15.98;7.80;;;;;;;;;;4926841;29;20039;-74
2022/01/11 11:45:27;;;;;;;16.00;7.68;;;;;;;;;;4925436;29;20558;-75
2022/01/11 11:48:02;;;;;;;16.67;7.30;;;;;;;;;;4927081;29;20036;-75
2022/01/11 11:50:28;;;;;;;12.82;6.80;;;;;;;;;;4926285;29;20088;-75
2022/01/11 11:52:55;;;;;;;18.45;8.32;;;;;;;;;;4924550;29;20027;-71
2022/01/11 11:55:24;;;;;;;13.82;7.13;;;;;;;;;;4927619;29;20116;-74
2022/01/11 11:57:55;;;;;;;14.05;6.97;;;;;;;;;;4926321;29;20040;-76
2022/01/11 12:00:23;;;;;;;19.55;7.70;;;;;;;;;;4926328;29;20023;-73
2022/01/11 12:02:53;;;;;;;18.45;7.18;;;;;;;;;;4919750;29;20472;-76
2022/01/11 12:05:33;;;;;;;13.52;7.05;;;;;;;;;;4918718;29;20016;-77
2022/01/11 12:07:59;;;;;;;14.30;7.47;;;;;;;;;;4917883;29;20036;-76
2022/01/11 12:10:55;;;;;;;16.17;6.40;;;;;;;;;;4916850;29;20074;-75
2022/01/11 12:13:37;;;;;;;15.18;7.13;;;;;;;;;;4916798;29;20040;-76
2022/01/11 12:16:04;;;;;;;21.08;7.78;;;;;;;;;;4937460;29;20032;-75
2022/01/11 12:18:43;;;;;;;11.20;4.97;;;;;;;;;;4936018;29;20070;-74
2022/01/11 12:21:10;;;;;;;15.43;6.60;;;;;;;;;;4935693;29;20139;-73
2022/01/11 12:23:36;;;;;;;14.55;6.78;;;;;;;;;;4935747;29;20040;-74
2022/01/11 12:26:13;;;;;;;15.60;6.45;;;;;;;;;;4935922;29;20031;-73
2022/01/11 12:28:40;;;;;;;16.20;6.35;;;;;;;;;;4937023;29;20028;-73
2022/01/11 12:31:25;;;;;;;13.93;6.40;;;;;;;;;;4935902;29;20512;-73
2022/01/11 12:33:51;;;;;;;9.20;3.42;;;;;;;;;;4924876;29;20047;-73
2022/01/11 12:36:17;;;;;;;17.63;8.50;;;;;;;;;;4932188;29;20059;-74
2022/01/11 12:39:04;;;;;;;18.35;9.15;;;;;;;;;;4935757;29;20122;-73
2022/01/11 12:41:34;;;;;;;21.83;10.07;;;;;;;;;;4935586;29;20031;-75
2022/01/11 12:44:21;;;;;;;18.63;9.35;;;;;;;;;;4935426;29;20031;-76
2022/01/11 12:46:50;;;;;;;20.42;9.25;;;;;;;;;;4935643;29;20106;-75
2022/01/11 12:49:16;;;;;;;22.08;10.00;;;;;;;;;;4935673;29;20027;-75
2022/01/11 12:51:52;;;;;;;22.52;10.50;;;;;;;;;;4935492;29;20030;-75
2022/01/11 12:54:27;;;;;;;18.48;9.57;;;;;;;;;;4917926;29;20106;-75
2022/01/11 12:56:56;;;;;;;22.15;9.68;;;;;;;;;;4917792;29;20052;-76
2022/01/11 12:59:25;;;;;;;21.73;9.18;;;;;;;;;;4917580;29;20028;-76
2022/01/11 13:02:04;;;;;;;21.48;10.25;;;;;;;;;;4924943;29;20367;-76
2022/01/11 13:04:43;;;;;;;22.98;9.80;;;;;;;;;;4936362;29;20032;-75
2022/01/11 13:07:13;;;;;;;19.90;10.00;;;;;;;;;;4936450;29;20103;-76
2022/01/11 13:09:40;;;;;;;22.70;10.32;;;;;;;;;;4935513;29;20123;-76
2022/01/11 13:12:06;;;;;;;21.83;11.02;;;;;;;;;;4935466;29;20126;-75
2022/01/11 13:14:40;;;;;;;25.55;12.05;;;;;;;;;;4921384;29;20087;-76
2022/01/11 13:17:06;;;;;;;;;;;;;;;;;;4931777;29;20032;-75
2022/01/11 13:19:33;;;;;;;21.30;8.77;;;;;;;;;;4917127;29;20002;-75
2022/01/11 13:22:03;;;;;;;22.02;9.82;;;;;;;;;;4916964;29;20036;-76
2022/01/11 13:24:35;;;;;;;24.27;9.77;;;;;;;;;;4917278;29;20028;-75
2022/01/11 13:27:08;;;;;;;26.27;10.25;;;;;;;;;;4917585;29;20035;-76
2022/01/11 13:29:35;;;;;;;21.30;9.23;;;;;;;;;;4917609;29;20035;-76
2022/01/11 13:32:01;;;;;;;22.05;8.32;;;;;;;;;;4900263;29;20119;-75
2022/01/11 13:34:27;;;;;;;18.42;8.93;;;;;;;;;;4916998;29;20039;-74
2022/01/11 13:36:55;;;;;;;21.40;8.95;;;;;;;;;;4917194;29;20035;-75
2022/01/11 13:39:24;;;;;;;22.60;9.82;;;;;;;;;;4917136;29;20079;-75
2022/01/11 13:41:51;;;;;;;23.08;9.07;;;;;;;;;;4899849;29;20047;-76
2022/01/11 13:44:22;;;;;;;25.45;9.23;;;;;;;;;;4916765;29;20457;-76
2022/01/11 13:47:04;;;;;;;22.08;8.95;;;;;;;;;;4900131;29;20024;-73
2022/01/11 13:49:35;;;;;;;20.70;9.30;;;;;;;;;;4900019;29;20512;-74
2022/01/11 13:52:07;;;;;;;23.27;9.77;;;;;;;;;;4928565;29;20023;-76
2022/01/11 13:54:38;;;;;;;19.75;9.43;;;;;;;;;;4917209;29;20032;-73
2022/01/11 13:57:06;;;;;;;21.67;10.02;;;;;;;;;;4928719;29;20034;-74
2022/01/11 13:59:32;;;;;;;22.60;8.77;;;;;;;;;;4933966;29;20082;-73
2022/01/11 14:02:17;;;;;;;25.48;9.25;;;;;;;;;;4935390;29;20039;-74
2022/01/11 14:04:49;;;;;;;22.20;9.13;;;;;;;;;;4918893;29;20066;-74
2022/01/11 14:07:20;;;;;;;21.83;9.40;;;;;;;;;;4901909;29;20192;-70
2022/01/11 14:09:51;;;;;;;21.73;9.02;;;;;;;;;;4920899;29;20346;-70
2022/01/11 14:12:30;;;;;;;19.48;8.52;;;;;;;;;;4922526;29;20032;-69
2022/01/11 14:15:05;;;;;;;20.08;8.38;;;;;;;;;;4930869;29;20093;-74
2022/01/11 14:17:32;;;;;;;23.50;8.55;;;;;;;;;;4917038;29;20035;-70
2022/01/11 14:20:00;;;;;;;20.20;8.50;;;;;;;;;;4916975;29;20123;-75
2022/01/11 14:22:41;;;;;;;22.02;8.50;;;;;;;;;;4899765;29;20068;-75
2022/01/11 14:25:12;;;;;;;18.15;7.75;;;;;;;;;;4899734;29;20036;-73
2022/01/11 14:27:39;;;;;;;20.85;8.27;;;;;;;;;;4899701;29;20036;-74
2022/01/11 14:30:08;;;;;;;15.20;7.55;;;;;;;;;;4928603;29;20477;-73